Time;durP1;ratioP1;P1;durP2;ratioP2;P2;SDS_P1;SDS_P2;PMS_P1;PMS_P2;Temp;Humidity;BMP_temperature;BMP_pressure;BME280_temperature;BME280_humidity;BME280_pressure;Samples;Min_cycle;Max_cycle;Signal;HPM_P1;HPM_P2
2021/07/19 00:00:31;;;;;;;527.08;421.38;;;;;;;;;;4903385;29;20032;-80
2021/07/19 00:02:57;;;;;;;528.60;421.92;;;;;;;;;;4901764;29;20119;-79
2021/07/19 00:05:24;;;;;;;524.83;420.15;;;;;;;;;;4908663;29;20086;-79
2021/07/19 00:07:50;;;;;;;526.45;424.50;;;;;;;;;;4888232;29;20163;-78
2021/07/19 00:10:17;;;;;;;523.70;415.50;;;;;;;;;;4898933;29;20143;-80
2021/07/19 00:12:44;;;;;;;521.03;407.38;;;;;;;;;;4892475;29;20064;-79
2021/07/19 00:15:14;;;;;;;523.13;416.48;;;;;;;;;;4901793;29;20039;-79
2021/07/19 00:17:42;;;;;;;522.92;409.55;;;;;;;;;;4895255;29;20028;-77
2021/07/19 00:20:08;;;;;;;525.33;411.73;;;;;;;;;;4869599;29;20029;-79
2021/07/19 00:22:34;;;;;;;523.63;413.10;;;;;;;;;;4868398;29;20119;-78
2021/07/19 00:25:00;;;;;;;525.17;416.35;;;;;;;;;;4878928;29;20040;-79
2021/07/19 00:27:26;;;;;;;522.80;411.90;;;;;;;;;;4875066;29;20135;-79
2021/07/19 00:29:53;;;;;;;524.38;411.15;;;;;;;;;;4874664;29;20116;-78
2021/07/19 00:32:19;;;;;;;526.65;413.63;;;;;;;;;;4877725;29;20051;-79
2021/07/19 00:34:45;;;;;;;523.20;406.77;;;;;;;;;;4862249;29;20150;-78
2021/07/19 00:37:11;;;;;;;524.15;408.17;;;;;;;;;;4895458;29;20052;-79
2021/07/19 00:39:37;;;;;;;520.47;409.58;;;;;;;;;;4879356;29;20033;-79
2021/07/19 00:42:03;;;;;;;521.22;405.10;;;;;;;;;;4890396;29;20359;-80
2021/07/19 00:44:29;;;;;;;523.45;411.38;;;;;;;;;;4879418;29;20069;-79
2021/07/19 00:46:55;;;;;;;522.03;409.20;;;;;;;;;;4880127;29;20471;-79
2021/07/19 00:49:22;;;;;;;524.97;411.20;;;;;;;;;;4869131;29;20448;-81
2021/07/19 00:51:48;;;;;;;520.40;404.98;;;;;;;;;;4883682;29;20372;-79
2021/07/19 00:54:17;;;;;;;524.78;404.92;;;;;;;;;;4878699;29;20032;-81
2021/07/19 00:56:44;;;;;;;523.40;405.92;;;;;;;;;;4877714;29;20451;-79
2021/07/19 00:59:10;;;;;;;519.63;402.52;;;;;;;;;;4887784;29;20052;-80
2021/07/19 01:01:38;;;;;;;521.95;401.42;;;;;;;;;;4880864;29;20051;-79
2021/07/19 01:04:04;;;;;;;522.97;403.65;;;;;;;;;;4878218;29;20025;-78
2021/07/19 01:06:31;;;;;;;526.08;408.80;;;;;;;;;;4876858;29;20052;-77
2021/07/19 01:08:58;;;;;;;522.88;401.65;;;;;;;;;;4877524;29;20020;-78
2021/07/19 01:11:24;;;;;;;521.40;398.55;;;;;;;;;;4887770;29;20033;-79
2021/07/19 01:13:50;;;;;;;521.53;401.50;;;;;;;;;;4863997;29;20040;-79
2021/07/19 01:16:17;;;;;;;523.95;404.52;;;;;;;;;;4875115;29;20028;-80
2021/07/19 01:18:43;;;;;;;523.97;406.15;;;;;;;;;;4887686;29;20283;-79
2021/07/19 01:21:15;;;;;;;523.00;405.02;;;;;;;;;;4923870;29;20451;-79
2021/07/19 01:24:00;;;;;;;521.08;404.67;;;;;;;;;;4914139;29;20672;-79
2021/07/19 01:26:26;;;;;;;528.42;401.27;;;;;;;;;;4909819;29;20052;-78
2021/07/19 01:28:53;;;;;;;523.50;406.90;;;;;;;;;;4910465;29;20031;-78
2021/07/19 01:31:18;;;;;;;518.38;400.23;;;;;;;;;;4910609;29;20406;-78
2021/07/19 01:33:49;;;;;;;520.83;404.67;;;;;;;;;;4911769;29;20032;-78
2021/07/19 01:36:16;;;;;;;516.50;387.90;;;;;;;;;;4916513;29;20028;-80
2021/07/19 01:38:42;;;;;;;520.75;399.50;;;;;;;;;;4916924;29;20540;-79
2021/07/19 01:41:09;;;;;;;517.40;397.85;;;;;;;;;;4913422;29;20110;-79
2021/07/19 01:43:35;;;;;;;522.60;401.95;;;;;;;;;;4911938;29;20031;-80
2021/07/19 01:46:01;;;;;;;519.47;400.13;;;;;;;;;;4905644;29;20355;-79
2021/07/19 01:48:29;;;;;;;522.00;405.38;;;;;;;;;;4932930;29;20483;-78
2021/07/19 01:50:56;;;;;;;518.60;396.27;;;;;;;;;;4928872;29;20028;-77
2021/07/19 01:53:22;;;;;;;520.70;401.92;;;;;;;;;;4916966;29;20075;-77
2021/07/19 01:55:49;;;;;;;517.92;395.65;;;;;;;;;;4909392;29;20111;-79
2021/07/19 01:58:16;;;;;;;520.25;398.92;;;;;;;;;;4926537;29;20029;-78
2021/07/19 02:00:42;;;;;;;518.38;395.42;;;;;;;;;;4916063;29;20028;-79
2021/07/19 02:03:08;;;;;;;514.42;393.25;;;;;;;;;;4913474;29;20056;-79
2021/07/19 02:05:34;;;;;;;521.40;400.67;;;;;;;;;;4903288;29;20553;-78
2021/07/19 02:08:01;;;;;;;515.42;390.20;;;;;;;;;;4914517;29;20039;-79
2021/07/19 02:10:28;;;;;;;517.35;394.10;;;;;;;;;;4917322;29;20020;-80
2021/07/19 02:12:56;;;;;;;518.58;392.90;;;;;;;;;;4905160;29;20074;-79
2021/07/19 02:15:22;;;;;;;520.78;395.50;;;;;;;;;;4902869;29;20035;-79
2021/07/19 02:17:52;;;;;;;521.53;403.60;;;;;;;;;;4917360;29;20079;-79
2021/07/19 02:20:18;;;;;;;;;;;;;;;;;;4909872;29;20470;-79
2021/07/19 02:22:45;;;;;;;515.53;373.92;;;;;;;;;;4905933;29;19907;-78
2021/07/19 02:25:13;;;;;;;517.22;384.10;;;;;;;;;;4902888;29;20092;-79
2021/07/19 02:27:39;;;;;;;520.30;391.35;;;;;;;;;;4911712;29;20036;-80
2021/07/19 02:30:07;;;;;;;517.55;387.08;;;;;;;;;;4914536;29;20439;-80
2021/07/19 02:32:35;;;;;;;519.00;388.98;;;;;;;;;;4904368;29;20710;-78
2021/07/19 02:35:01;;;;;;;519.95;390.58;;;;;;;;;;4904553;29;20463;-79
2021/07/19 02:37:27;;;;;;;523.65;399.27;;;;;;;;;;4907932;29;20032;-77
2021/07/19 02:39:54;;;;;;;521.30;392.52;;;;;;;;;;4910016;29;20051;-79
2021/07/19 02:42:20;;;;;;;520.53;391.77;;;;;;;;;;4910527;29;20090;-79
2021/07/19 02:44:46;;;;;;;519.95;390.38;;;;;;;;;;4933553;29;20123;-79
2021/07/19 02:47:12;;;;;;;521.90;399.00;;;;;;;;;;4900497;29;20067;-79
2021/07/19 02:49:38;;;;;;;521.30;395.90;;;;;;;;;;4906327;29;20024;-79
2021/07/19 02:52:05;;;;;;;520.67;395.83;;;;;;;;;;4902919;29;20080;-79
2021/07/19 02:54:31;;;;;;;523.35;397.92;;;;;;;;;;4902691;29;20039;-79
2021/07/19 02:56:58;;;;;;;523.00;399.80;;;;;;;;;;4916211;29;20046;-77
2021/07/19 02:59:24;;;;;;;519.05;393.83;;;;;;;;;;4914707;29;20495;-80
2021/07/19 03:01:52;;;;;;;522.22;395.60;;;;;;;;;;4901564;29;20027;-78
2021/07/19 03:04:19;;;;;;;525.30;400.73;;;;;;;;;;4916521;29;20447;-78
2021/07/19 03:06:45;;;;;;;524.30;404.88;;;;;;;;;;4908569;29;20566;-79
2021/07/19 03:09:12;;;;;;;520.17;394.88;;;;;;;;;;4914415;29;20040;-79
2021/07/19 03:11:43;;;;;;;519.10;394.63;;;;;;;;;;4930712;29;20055;-78
2021/07/19 03:14:13;;;;;;;518.28;391.17;;;;;;;;;;4916412;29;20446;-78
2021/07/19 03:16:39;;;;;;;524.20;402.50;;;;;;;;;;4900996;29;20039;-78
2021/07/19 03:19:08;;;;;;;518.40;396.15;;;;;;;;;;4897588;29;20110;-79
2021/07/19 03:21:35;;;;;;;522.00;402.08;;;;;;;;;;4922214;29;20107;-78
2021/07/19 03:24:02;;;;;;;518.25;393.35;;;;;;;;;;4900710;29;20024;-79
2021/07/19 03:26:29;;;;;;;518.40;394.80;;;;;;;;;;4905373;29;20434;-80
2021/07/19 03:28:56;;;;;;;518.80;396.05;;;;;;;;;;4904535;29;20040;-80
2021/07/19 03:31:22;;;;;;;519.50;401.45;;;;;;;;;;4900358;29;20031;-80
2021/07/19 03:33:49;;;;;;;518.22;395.83;;;;;;;;;;4910795;29;20107;-79
2021/07/19 03:36:16;;;;;;;521.33;404.35;;;;;;;;;;4896290;29;20416;-79
2021/07/19 03:38:43;;;;;;;518.95;399.98;;;;;;;;;;4906442;29;20024;-78
2021/07/19 03:41:11;;;;;;;522.47;406.90;;;;;;;;;;4896602;29;20115;-78
2021/07/19 03:43:37;;;;;;;518.03;401.58;;;;;;;;;;4896284;29;20024;-80
2021/07/19 03:46:03;;;;;;;518.42;396.42;;;;;;;;;;4916035;29;20035;-79
2021/07/19 03:48:29;;;;;;;520.60;404.60;;;;;;;;;;4900071;29;20036;-79
2021/07/19 03:50:55;;;;;;;519.67;404.88;;;;;;;;;;4904902;29;20032;-79
2021/07/19 03:53:22;;;;;;;518.25;404.42;;;;;;;;;;4912550;29;20346;-79
2021/07/19 03:55:52;;;;;;;517.58;402.60;;;;;;;;;;4910327;29;20024;-78
2021/07/19 03:58:19;;;;;;;519.60;401.73;;;;;;;;;;4901390;29;20036;-80
2021/07/19 04:00:49;;;;;;;522.10;406.38;;;;;;;;;;4909826;29;20024;-78
2021/07/19 04:03:26;;;;;;;520.50;406.15;;;;;;;;;;4899964;29;20016;-78
2021/07/19 04:06:00;;;;;;;518.03;402.80;;;;;;;;;;4903472;29;20028;-77
2021/07/19 04:08:27;;;;;;;517.40;397.08;;;;;;;;;;4911694;29;20050;-79
2021/07/19 04:10:54;;;;;;;520.20;402.20;;;;;;;;;;4896300;29;20024;-80
2021/07/19 04:13:20;;;;;;;519.13;405.40;;;;;;;;;;4899555;29;20807;-77
2021/07/19 04:15:49;;;;;;;519.95;410.63;;;;;;;;;;4901842;29;20036;-78
2021/07/19 04:18:15;;;;;;;519.40;411.60;;;;;;;;;;4895997;29;20052;-80
2021/07/19 04:20:42;;;;;;;520.33;410.30;;;;;;;;;;4894937;29;20029;-78
2021/07/19 04:23:12;;;;;;;518.67;412.08;;;;;;;;;;4899407;29;20035;-77
2021/07/19 04:25:39;;;;;;;518.13;411.38;;;;;;;;;;4904290;29;20381;-77
2021/07/19 04:28:06;;;;;;;516.60;406.02;;;;;;;;;;4913386;29;20515;-78
2021/07/19 04:30:33;;;;;;;521.55;407.15;;;;;;;;;;4905525;29;20035;-77
2021/07/19 04:32:59;;;;;;;519.10;413.20;;;;;;;;;;4911887;29;20048;-78
2021/07/19 04:35:25;;;;;;;519.28;413.85;;;;;;;;;;4902674;29;20032;-79
2021/07/19 04:37:53;;;;;;;521.58;415.45;;;;;;;;;;4894156;29;20656;-78
2021/07/19 04:40:19;;;;;;;515.58;406.13;;;;;;;;;;4907141;29;20051;-78
2021/07/19 04:42:45;;;;;;;519.47;414.50;;;;;;;;;;4894212;29;20028;-80
2021/07/19 04:45:12;;;;;;;518.10;409.23;;;;;;;;;;4909178;29;20076;-78
2021/07/19 04:47:38;;;;;;;517.67;411.20;;;;;;;;;;4906033;29;20380;-77
2021/07/19 04:50:05;;;;;;;518.17;410.45;;;;;;;;;;4912687;29;20032;-80
2021/07/19 04:52:31;;;;;;;522.55;415.40;;;;;;;;;;4913361;29;20020;-77
2021/07/19 04:54:58;;;;;;;518.42;412.00;;;;;;;;;;4908290;29;20069;-78
2021/07/19 04:57:24;;;;;;;517.90;412.73;;;;;;;;;;4900464;29;20041;-78
2021/07/19 04:59:51;;;;;;;520.03;414.85;;;;;;;;;;4900088;29;20041;-78
2021/07/19 05:02:20;;;;;;;517.13;412.60;;;;;;;;;;4895107;29;20032;-79
2021/07/19 05:04:47;;;;;;;518.80;413.10;;;;;;;;;;4899435;29;20041;-78
2021/07/19 05:07:15;;;;;;;519.78;416.58;;;;;;;;;;4910612;29;20120;-79
2021/07/19 05:09:42;;;;;;;518.45;415.35;;;;;;;;;;4904570;29;20032;-79
2021/07/19 05:12:12;;;;;;;521.75;422.95;;;;;;;;;;4907321;29;20040;-79
2021/07/19 05:14:39;;;;;;;524.08;422.77;;;;;;;;;;4908300;29;20095;-80
2021/07/19 05:17:06;;;;;;;520.38;420.27;;;;;;;;;;4918198;29;20028;-78
2021/07/19 05:19:32;;;;;;;522.30;426.75;;;;;;;;;;4897713;29;20048;-79
2021/07/19 05:21:58;;;;;;;519.58;424.42;;;;;;;;;;4920067;29;20079;-81
2021/07/19 05:24:30;;;;;;;521.25;424.50;;;;;;;;;;4918642;29;20028;-79
2021/07/19 05:26:56;;;;;;;519.53;422.65;;;;;;;;;;4921034;29;20437;-78
2021/07/19 05:29:22;;;;;;;522.42;431.52;;;;;;;;;;4906002;29;20115;-80
2021/07/19 05:31:48;;;;;;;521.83;431.77;;;;;;;;;;4915545;29;20715;-80
2021/07/19 05:34:14;;;;;;;523.00;434.10;;;;;;;;;;4904054;29;20059;-79
2021/07/19 05:36:40;;;;;;;522.00;430.50;;;;;;;;;;4914196;29;20067;-79
2021/07/19 05:39:06;;;;;;;519.47;430.75;;;;;;;;;;4913393;29;20040;-79
2021/07/19 05:41:32;;;;;;;523.50;435.85;;;;;;;;;;4907128;29;20127;-78
2021/07/19 05:43:58;;;;;;;524.72;434.58;;;;;;;;;;4909248;29;20032;-80
2021/07/19 05:46:24;;;;;;;521.10;430.30;;;;;;;;;;4931528;29;20067;-79
2021/07/19 05:48:50;;;;;;;521.70;434.38;;;;;;;;;;4908481;29;20094;-80
2021/07/19 05:51:16;;;;;;;523.78;438.67;;;;;;;;;;4897952;29;20039;-79
2021/07/19 05:53:42;;;;;;;525.00;440.45;;;;;;;;;;4900554;29;20455;-79
2021/07/19 05:56:09;;;;;;;524.80;440.05;;;;;;;;;;4904692;29;20027;-81
2021/07/19 05:58:35;;;;;;;526.67;443.23;;;;;;;;;;4905745;29;20032;-78
2021/07/19 06:01:01;;;;;;;522.30;436.50;;;;;;;;;;4907255;29;20027;-79
2021/07/19 06:03:27;;;;;;;523.08;438.23;;;;;;;;;;4906313;29;20082;-79
2021/07/19 06:05:53;;;;;;;525.33;442.80;;;;;;;;;;4921289;29;20036;-81
2021/07/19 06:08:19;;;;;;;522.22;438.67;;;;;;;;;;4908150;29;20054;-79
2021/07/19 06:10:45;;;;;;;529.53;449.25;;;;;;;;;;4907433;29;20030;-80
2021/07/19 06:13:12;;;;;;;523.50;440.60;;;;;;;;;;4910190;29;20446;-80
2021/07/19 06:15:38;;;;;;;527.83;450.55;;;;;;;;;;4902808;29;20437;-80
2021/07/19 06:18:07;;;;;;;523.67;443.73;;;;;;;;;;4901394;29;20044;-80
2021/07/19 06:20:33;;;;;;;526.03;448.33;;;;;;;;;;4908422;29;20031;-78
2021/07/19 06:23:00;;;;;;;535.17;447.50;;;;;;;;;;4908704;29;20062;-80
2021/07/19 06:25:28;;;;;;;524.70;445.83;;;;;;;;;;4909191;29;20016;-79
2021/07/19 06:27:54;;;;;;;528.55;451.65;;;;;;;;;;4930903;29;20046;-79
2021/07/19 06:30:20;;;;;;;524.95;446.27;;;;;;;;;;4908749;29;20036;-80
2021/07/19 06:32:46;;;;;;;527.42;451.83;;;;;;;;;;4909864;29;20592;-79
2021/07/19 06:35:12;;;;;;;526.30;451.85;;;;;;;;;;4912157;29;20035;-78
2021/07/19 06:37:38;;;;;;;525.30;448.90;;;;;;;;;;4911924;29;20035;-79
2021/07/19 06:40:05;;;;;;;523.40;447.45;;;;;;;;;;4907978;29;20038;-78
2021/07/19 06:42:31;;;;;;;524.38;448.05;;;;;;;;;;4909897;29;20031;-79
2021/07/19 06:44:57;;;;;;;525.25;453.95;;;;;;;;;;4908292;29;20050;-79
2021/07/19 06:47:24;;;;;;;527.53;456.48;;;;;;;;;;4908282;29;20036;-79
2021/07/19 06:49:50;;;;;;;526.10;446.65;;;;;;;;;;4928994;29;20028;-79
2021/07/19 06:52:16;;;;;;;527.05;451.98;;;;;;;;;;4920972;29;20614;-79
2021/07/19 06:54:42;;;;;;;524.10;454.33;;;;;;;;;;4901168;29;20036;-79
2021/07/19 06:57:08;;;;;;;528.50;462.10;;;;;;;;;;4918105;29;20062;-78
2021/07/19 06:59:34;;;;;;;530.00;455.48;;;;;;;;;;4899797;29;20111;-78
2021/07/19 07:02:00;;;;;;;524.53;457.27;;;;;;;;;;4903292;29;20120;-79
2021/07/19 07:04:26;;;;;;;524.85;455.48;;;;;;;;;;4905872;29;20032;-77
2021/07/19 07:06:52;;;;;;;524.58;459.50;;;;;;;;;;4918550;29;20032;-78
2021/07/19 07:09:19;;;;;;;524.90;457.05;;;;;;;;;;4912870;29;20532;-77
2021/07/19 07:11:45;;;;;;;523.88;451.95;;;;;;;;;;4910780;29;20556;-80
2021/07/19 07:14:11;;;;;;;525.25;457.05;;;;;;;;;;4918710;29;20114;-78
2021/07/19 07:16:37;;;;;;;528.30;461.65;;;;;;;;;;4903698;29;20038;-79
2021/07/19 07:19:04;;;;;;;523.50;456.92;;;;;;;;;;4901332;29;20044;-78
2021/07/19 07:21:31;;;;;;;526.38;460.33;;;;;;;;;;4928009;29;20034;-79
2021/07/19 07:23:57;;;;;;;528.08;461.08;;;;;;;;;;4913080;29;20024;-78
2021/07/19 07:26:23;;;;;;;527.65;463.38;;;;;;;;;;4919420;29;20151;-79
2021/07/19 07:28:49;;;;;;;525.55;465.33;;;;;;;;;;4910382;29;20031;-79
2021/07/19 07:31:15;;;;;;;526.25;460.70;;;;;;;;;;4912103;29;20056;-78
2021/07/19 07:33:41;;;;;;;524.90;463.08;;;;;;;;;;4914689;29;20028;-80
2021/07/19 07:36:08;;;;;;;525.65;460.08;;;;;;;;;;4914807;29;20039;-79
2021/07/19 07:38:34;;;;;;;529.15;466.88;;;;;;;;;;4906870;29;20127;-79
2021/07/19 07:41:00;;;;;;;523.08;459.33;;;;;;;;;;4905863;29;20513;-78
2021/07/19 07:43:26;;;;;;;527.25;467.50;;;;;;;;;;4910287;29;20363;-78
2021/07/19 07:45:52;;;;;;;531.63;472.88;;;;;;;;;;4910807;29;20027;-76
2021/07/19 07:48:18;;;;;;;527.65;469.27;;;;;;;;;;4915802;29;20466;-78
2021/07/19 07:50:44;;;;;;;529.85;471.27;;;;;;;;;;4921044;29;20035;-79
2021/07/19 07:53:10;;;;;;;524.60;464.25;;;;;;;;;;4905523;29;20064;-78
2021/07/19 07:55:37;;;;;;;527.45;466.58;;;;;;;;;;4915848;29;20032;-77
2021/07/19 07:58:04;;;;;;;523.28;463.45;;;;;;;;;;4910931;29;20056;-80
2021/07/19 08:00:31;;;;;;;529.28;469.75;;;;;;;;;;4904819;29;20039;-78
2021/07/19 08:02:57;;;;;;;529.90;471.33;;;;;;;;;;4905788;29;20029;-79
2021/07/19 08:05:23;;;;;;;525.15;466.58;;;;;;;;;;4908646;29;20046;-80
2021/07/19 08:07:49;;;;;;;528.47;469.65;;;;;;;;;;4907650;29;20040;-78
2021/07/19 08:10:15;;;;;;;524.53;466.35;;;;;;;;;;4909615;29;20056;-78
2021/07/19 08:12:43;;;;;;;534.60;475.95;;;;;;;;;;4922401;29;20016;-77
2021/07/19 08:15:10;;;;;;;537.60;478.77;;;;;;;;;;4904819;29;20039;-78
2021/07/19 08:17:36;;;;;;;527.60;468.90;;;;;;;;;;4916459;29;20040;-77
2021/07/19 08:20:03;;;;;;;529.50;471.25;;;;;;;;;;4909372;29;20035;-79
2021/07/19 08:22:31;;;;;;;534.28;475.65;;;;;;;;;;4921981;29;20042;-77
2021/07/19 08:24:57;;;;;;;532.22;473.83;;;;;;;;;;4898816;29;20032;-79
2021/07/19 08:27:23;;;;;;;529.17;470.77;;;;;;;;;;4911783;29;20044;-79
2021/07/19 08:29:49;;;;;;;534.92;475.75;;;;;;;;;;4898325;29;20033;-78
2021/07/19 08:32:16;;;;;;;532.60;473.90;;;;;;;;;;4910602;29;20024;-78
2021/07/19 08:34:45;;;;;;;533.15;474.58;;;;;;;;;;4913106;29;20030;-78
2021/07/19 08:37:11;;;;;;;528.38;470.05;;;;;;;;;;4897851;29;20694;-77
2021/07/19 08:39:37;;;;;;;541.15;482.55;;;;;;;;;;4914499;29;20028;-77
2021/07/19 08:42:03;;;;;;;544.58;485.85;;;;;;;;;;4909643;29;20405;-78
2021/07/19 08:44:29;;;;;;;556.33;496.88;;;;;;;;;;4934653;29;20099;-79
2021/07/19 08:46:55;;;;;;;552.47;493.58;;;;;;;;;;4915019;29;20087;-80
2021/07/19 08:49:21;;;;;;;559.45;500.33;;;;;;;;;;4907225;29;20375;-78
2021/07/19 08:51:47;;;;;;;553.55;494.77;;;;;;;;;;4904729;29;20024;-79
2021/07/19 08:54:13;;;;;;;557.88;498.80;;;;;;;;;;4898657;29;20124;-78
2021/07/19 08:56:40;;;;;;;553.58;494.50;;;;;;;;;;4902785;29;20079;-79
2021/07/19 08:59:07;;;;;;;552.63;493.83;;;;;;;;;;4906644;29;20433;-78
2021/07/19 09:01:42;;;;;;;553.92;494.85;;;;;;;;;;4901983;29;20067;-77
2021/07/19 09:04:08;;;;;;;556.42;497.42;;;;;;;;;;4917480;29;20115;-78
2021/07/19 09:06:34;;;;;;;562.85;503.35;;;;;;;;;;4903631;29;20039;-77
2021/07/19 09:09:02;;;;;;;558.42;499.35;;;;;;;;;;4902209;29;20522;-80
2021/07/19 09:11:29;;;;;;;566.08;506.48;;;;;;;;;;4924096;29;20040;-77
2021/07/19 09:14:06;;;;;;;563.22;503.60;;;;;;;;;;4905799;29;20370;-78
2021/07/19 09:16:39;;;;;;;551.65;492.77;;;;;;;;;;4902093;29;20135;-80
2021/07/19 09:19:06;;;;;;;551.05;492.05;;;;;;;;;;4904240;29;20062;-78
2021/07/19 09:21:34;;;;;;;558.30;498.83;;;;;;;;;;4907885;29;20032;-77
2021/07/19 09:24:04;;;;;;;564.95;505.35;;;;;;;;;;4918746;29;20035;-79
2021/07/19 09:26:31;;;;;;;565.55;506.00;;;;;;;;;;4907934;29;20028;-76
2021/07/19 09:28:58;;;;;;;560.80;501.83;;;;;;;;;;4903238;29;20039;-80
2021/07/19 09:31:34;;;;;;;562.13;503.38;;;;;;;;;;4908532;29;20028;-79
2021/07/19 09:34:00;;;;;;;573.28;513.72;;;;;;;;;;4907984;29;20118;-78
2021/07/19 09:36:27;;;;;;;574.17;514.53;;;;;;;;;;4925685;29;20160;-77
2021/07/19 09:39:06;;;;;;;575.33;516.20;;;;;;;;;;4905156;29;20050;-78
2021/07/19 09:41:32;;;;;;;565.38;506.25;;;;;;;;;;4920225;29;20034;-78
2021/07/19 09:43:58;;;;;;;568.38;509.17;;;;;;;;;;4905604;29;20027;-77
2021/07/19 09:46:33;;;;;;;566.03;506.90;;;;;;;;;;4903966;29;20024;-81
2021/07/19 09:49:00;;;;;;;562.58;503.48;;;;;;;;;;4906322;29;20106;-79
2021/07/19 09:51:30;;;;;;;570.83;511.23;;;;;;;;;;4898872;29;20098;-78
2021/07/19 09:54:08;;;;;;;587.30;527.63;;;;;;;;;;4919013;29;20601;-77
2021/07/19 09:56:34;;;;;;;591.00;531.03;;;;;;;;;;4919104;29;20023;-79
2021/07/19 09:59:10;;;;;;;594.85;535.38;;;;;;;;;;4923214;29;20358;-79
2021/07/19 10:01:37;;;;;;;592.95;533.28;;;;;;;;;;4904874;29;20032;-79
2021/07/19 10:04:10;;;;;;;592.08;531.50;;;;;;;;;;4918208;29;20055;-80
2021/07/19 10:06:37;;;;;;;590.10;530.08;;;;;;;;;;4902616;29;20127;-79
2021/07/19 10:09:06;;;;;;;587.28;527.35;;;;;;;;;;4905276;29;20035;-79
2021/07/19 10:11:37;;;;;;;577.67;518.22;;;;;;;;;;4909973;29;20032;-79
2021/07/19 10:14:03;;;;;;;584.80;525.17;;;;;;;;;;4904041;29;20024;-78
2021/07/19 10:16:31;;;;;;;590.05;530.28;;;;;;;;;;4906820;29;20119;-79
2021/07/19 10:18:58;;;;;;;587.88;527.78;;;;;;;;;;4900536;29;21582;-79
2021/07/19 10:21:29;;;;;;;596.55;535.25;;;;;;;;;;4897814;29;20035;-81
2021/07/19 10:23:56;;;;;;;589.08;529.20;;;;;;;;;;4905360;29;20046;-80
2021/07/19 10:26:22;;;;;;;584.33;524.65;;;;;;;;;;4906504;29;20404;-80
2021/07/19 10:28:48;;;;;;;595.20;535.50;;;;;;;;;;4914310;29;20040;-79
2021/07/19 10:31:18;;;;;;;607.75;547.80;;;;;;;;;;4913840;29;20078;-80
2021/07/19 10:33:45;;;;;;;625.50;565.20;;;;;;;;;;4909571;29;20025;-78
2021/07/19 10:36:12;;;;;;;642.10;581.45;;;;;;;;;;4898880;29;20036;-80
2021/07/19 10:38:40;;;;;;;649.10;587.95;;;;;;;;;;4901256;29;20126;-79
2021/07/19 10:41:07;;;;;;;649.53;588.38;;;;;;;;;;4904076;29;20020;-79
2021/07/19 10:43:32;;;;;;;659.63;598.05;;;;;;;;;;4911633;29;20032;-80
2021/07/19 10:46:25;;;;;;;663.42;602.10;;;;;;;;;;4910955;29;20028;-80
2021/07/19 10:49:01;;;;;;;660.05;598.83;;;;;;;;;;4908919;29;20051;-80
2021/07/19 10:51:40;;;;;;;644.15;583.47;;;;;;;;;;4902247;29;20118;-80
2021/07/19 10:54:20;;;;;;;628.83;568.75;;;;;;;;;;4906428;29;20052;-79
2021/07/19 10:56:47;;;;;;;618.30;557.95;;;;;;;;;;4902876;29;21572;-78
2021/07/19 10:59:22;;;;;;;621.78;561.65;;;;;;;;;;4902526;29;20050;-79
2021/07/19 11:01:52;;;;;;;621.90;561.85;;;;;;;;;;4905217;29;20055;-79
2021/07/19 11:04:19;;;;;;;625.50;564.50;;;;;;;;;;4902366;29;20038;-80
2021/07/19 11:06:49;;;;;;;618.40;558.55;;;;;;;;;;4899691;29;20074;-83
2021/07/19 11:09:15;;;;;;;618.25;558.15;;;;;;;;;;4902838;29;20104;-81
2021/07/19 11:11:42;;;;;;;615.72;555.92;;;;;;;;;;4901277;29;20032;-81
2021/07/19 11:14:23;;;;;;;616.30;556.50;;;;;;;;;;4912464;29;20114;-79
2021/07/19 11:16:50;;;;;;;624.78;564.60;;;;;;;;;;4911328;29;20067;-79
2021/07/19 11:19:17;;;;;;;627.80;567.78;;;;;;;;;;4906051;29;20536;-81
2021/07/19 11:21:44;;;;;;;622.22;562.50;;;;;;;;;;4889667;29;20032;-80
2021/07/19 11:24:10;;;;;;;623.92;563.72;;;;;;;;;;4904790;29;20036;-80
2021/07/19 11:26:47;;;;;;;625.10;564.90;;;;;;;;;;4895323;29;20147;-81
2021/07/19 11:29:32;;;;;;;622.47;562.33;;;;;;;;;;4909771;29;20226;-83
2021/07/19 11:32:06;;;;;;;628.05;567.78;;;;;;;;;;4893208;29;20039;-88
2021/07/19 11:34:35;;;;;;;614.08;554.28;;;;;;;;;;4913460;29;20059;-79
2021/07/19 11:37:01;;;;;;;612.35;552.42;;;;;;;;;;4899624;29;20070;-81
2021/07/19 11:39:27;;;;;;;618.00;557.58;;;;;;;;;;4892002;29;20170;-79
2021/07/19 11:42:03;;;;;;;635.30;574.95;;;;;;;;;;4908527;29;20039;-82
2021/07/19 11:44:32;;;;;;;643.15;582.72;;;;;;;;;;4901750;29;20159;-83
2021/07/19 11:46:59;;;;;;;642.05;581.95;;;;;;;;;;4903418;29;20543;-79
2021/07/19 11:49:25;;;;;;;637.53;577.45;;;;;;;;;;4909803;29;20023;-81
2021/07/19 11:51:51;;;;;;;649.50;588.97;;;;;;;;;;4915687;29;20475;-80
2021/07/19 11:54:18;;;;;;;651.08;590.75;;;;;;;;;;4897043;29;20071;-80
2021/07/19 11:56:48;;;;;;;650.45;590.03;;;;;;;;;;4894801;29;20435;-80
2021/07/19 11:59:46;;;;;;;;;;;;;;;;;;;;;
2021/07/19 12:02:12;;;;;;;626.55;566.67;;;;;;;;;;4902171;29;20043;-79
2021/07/19 12:04:45;;;;;;;634.42;574.35;;;;;;;;;;4898094;29;20111;-85
2021/07/19 12:07:12;;;;;;;649.15;588.38;;;;;;;;;;4896821;29;20040;-80
2021/07/19 12:09:39;;;;;;;673.75;612.05;;;;;;;;;;4911206;29;20032;-78
2021/07/19 12:12:06;;;;;;;679.83;619.00;;;;;;;;;;4905704;29;20022;-78
2021/07/19 12:14:32;;;;;;;694.30;632.83;;;;;;;;;;4888675;29;20029;-81
2021/07/19 12:16:59;;;;;;;715.75;653.95;;;;;;;;;;4903980;29;20039;-84
2021/07/19 12:19:27;;;;;;;710.25;648.63;;;;;;;;;;4903833;29;20044;-82
2021/07/19 12:21:55;;;;;;;725.40;663.63;;;;;;;;;;4894512;29;20024;-82
2021/07/19 12:24:25;;;;;;;730.90;669.10;;;;;;;;;;4901310;29;20064;-82
2021/07/19 12:26:54;;;;;;;745.72;683.58;;;;;;;;;;4892227;29;20033;-80
2021/07/19 12:29:20;;;;;;;;;;;;;;;;;;4901916;29;20436;-80
2021/07/19 12:31:46;;;;;;;739.33;677.47;;;;;;;;;;4897339;29;20261;-79
2021/07/19 12:34:13;;;;;;;748.63;686.65;;;;;;;;;;4905835;29;20024;-81
2021/07/19 12:36:40;;;;;;;746.40;684.47;;;;;;;;;;4902100;29;20100;-80
2021/07/19 12:39:07;;;;;;;731.70;670.20;;;;;;;;;;4898080;29;20024;-80
2021/07/19 12:41:36;;;;;;;738.83;677.33;;;;;;;;;;4897628;29;20020;-83
2021/07/19 12:44:05;;;;;;;749.85;688.03;;;;;;;;;;4901796;29;20024;-84
2021/07/19 12:46:31;;;;;;;755.50;693.53;;;;;;;;;;4909373;29;20456;-81
2021/07/19 12:48:57;;;;;;;762.03;698.97;;;;;;;;;;4901576;29;20088;-81
2021/07/19 12:51:24;;;;;;;758.58;696.72;;;;;;;;;;4911474;29;20471;-81
2021/07/19 12:53:57;;;;;;;770.78;708.65;;;;;;;;;;4897833;29;20077;-83
2021/07/19 12:56:23;;;;;;;778.63;716.08;;;;;;;;;;4900761;29;20029;-80
2021/07/19 12:58:53;;;;;;;784.65;721.72;;;;;;;;;;4902658;29;20036;-86
2021/07/19 13:01:19;;;;;;;775.47;713.13;;;;;;;;;;4905737;29;20467;-80
2021/07/19 13:03:45;;;;;;;766.70;704.90;;;;;;;;;;4895521;29;20032;-83
2021/07/19 13:06:11;;;;;;;761.05;699.45;;;;;;;;;;4901865;29;20029;-81
2021/07/19 13:08:37;;;;;;;746.67;684.97;;;;;;;;;;4905171;29;20363;-81
2021/07/19 13:11:15;;;;;;;754.55;692.35;;;;;;;;;;4904627;29;20035;-82
2021/07/19 13:13:41;;;;;;;744.47;682.70;;;;;;;;;;4898397;29;20039;-80
2021/07/19 13:16:07;;;;;;;741.35;679.65;;;;;;;;;;4905228;29;20032;-82
2021/07/19 13:18:35;;;;;;;750.47;688.17;;;;;;;;;;4895233;29;20361;-82
2021/07/19 13:21:02;;;;;;;750.15;688.42;;;;;;;;;;4902237;29;20119;-82
2021/07/19 13:23:32;;;;;;;760.78;698.50;;;;;;;;;;4908099;29;20975;-82
2021/07/19 13:25:57;;;;;;;;;;;;;;;;;;4911799;29;20047;-82
2021/07/19 13:28:23;;;;;;;731.78;669.63;;;;;;;;;;4903019;29;19915;-81
2021/07/19 13:30:50;;;;;;;724.05;662.33;;;;;;;;;;4897896;29;20024;-79
2021/07/19 13:33:23;;;;;;;717.80;655.92;;;;;;;;;;4905331;29;20081;-79
2021/07/19 13:35:49;;;;;;;717.53;655.83;;;;;;;;;;4890675;29;20186;-80
2021/07/19 13:38:17;;;;;;;724.42;662.55;;;;;;;;;;4895442;29;20039;-83
2021/07/19 13:40:50;;;;;;;727.35;665.45;;;;;;;;;;4892601;29;20028;-79
2021/07/19 13:43:19;;;;;;;727.25;665.20;;;;;;;;;;4898201;29;20460;-79
2021/07/19 13:45:45;;;;;;;717.13;655.50;;;;;;;;;;4901674;29;20028;-82
2021/07/19 13:48:12;;;;;;;703.15;641.97;;;;;;;;;;4906733;29;20071;-81
2021/07/19 13:50:38;;;;;;;716.35;654.60;;;;;;;;;;4899507;29;20458;-82
2021/07/19 13:53:04;;;;;;;708.75;647.17;;;;;;;;;;4905289;29;21771;-81
2021/07/19 13:55:35;;;;;;;704.58;643.22;;;;;;;;;;4891421;29;20123;-82